Terminal Aerodrome Forecast
Issued by NWS

Home | Current Version | Previous Version | Text Only | Print | Product List | Glossary On
Versions: 1 2 3 4 5 6 7 8 9 10 11 12 13 14 15 16 17
000
FTUS44 KCRP 202300
TAFLRD
TAF
KLRD 202325Z 2100/2124 11008KT P6SM VCTS SCT030CB BKN050
      TEMPO 2100/2102 VRB15G25KT 4SM TSRA BKN025CB
     FM210300 13006KT P6SM SCT025 BKN200
      TEMPO 2109/2113 6SM BR BKN015
     FM211400 11008KT P6SM SCT030 BKN200
     FM211900 11010KT P6SM SCT050 PROB30 2119/2123 5SM -TSRA
      BKN040CB=

USA.gov is the U.S. government's official web portal to all federal, state and local government web resources and services.